sensor_id;sensor_type;location;lat;lon;timestamp;temperature;humidity
314;DHT22;143;51.634;7.112;2023-08-01T00:00:31;17.30;1.00
314;DHT22;143;51.634;7.112;2023-08-01T00:02:57;17.40;1.00
314;DHT22;143;51.634;7.112;2023-08-01T00:05:23;17.30;1.00
314;DHT22;143;51.634;7.112;2023-08-01T00:07:49;17.30;1.00
314;DHT22;143;51.634;7.112;2023-08-01T00:10:14;17.30;1.00
314;DHT22;143;51.634;7.112;2023-08-01T00:12:42;17.30;1.00
314;DHT22;143;51.634;7.112;2023-08-01T00:15:08;17.30;1.00
314;DHT22;143;51.634;7.112;2023-08-01T00:17:34;17.30;1.00
314;DHT22;143;51.634;7.112;2023-08-01T00:20:02;17.30;1.00
314;DHT22;143;51.634;7.112;2023-08-01T00:22:28;17.30;1.00
314;DHT22;143;51.634;7.112;2023-08-01T00:24:54;17.30;1.00
314;DHT22;143;51.634;7.112;2023-08-01T00:27:19;17.30;1.00
314;DHT22;143;51.634;7.112;2023-08-01T00:29:45;17.40;1.00
314;DHT22;143;51.634;7.112;2023-08-01T00:32:11;17.30;1.00
314;DHT22;143;51.634;7.112;2023-08-01T00:34:37;17.30;1.00
314;DHT22;143;51.634;7.112;2023-08-01T00:37:02;17.30;1.00
314;DHT22;143;51.634;7.112;2023-08-01T00:39:28;17.30;1.00
314;DHT22;143;51.634;7.112;2023-08-01T00:41:54;17.30;1.00
314;DHT22;143;51.634;7.112;2023-08-01T00:44:20;17.30;1.00
314;DHT22;143;51.634;7.112;2023-08-01T00:46:45;17.30;1.00
314;DHT22;143;51.634;7.112;2023-08-01T00:49:12;17.30;1.00
314;DHT22;143;51.634;7.112;2023-08-01T00:51:38;17.30;1.00
314;DHT22;143;51.634;7.112;2023-08-01T00:54:03;17.30;1.00
314;DHT22;143;51.634;7.112;2023-08-01T00:56:29;17.20;1.00
314;DHT22;143;51.634;7.112;2023-08-01T00:58:55;17.20;1.00
314;DHT22;143;51.634;7.112;2023-08-01T01:01:20;17.20;1.00
314;DHT22;143;51.634;7.112;2023-08-01T01:03:47;17.20;1.00
314;DHT22;143;51.634;7.112;2023-08-01T01:06:16;17.30;1.00
314;DHT22;143;51.634;7.112;2023-08-01T01:08:44;17.30;1.00
314;DHT22;143;51.634;7.112;2023-08-01T01:11:10;17.30;1.00
314;DHT22;143;51.634;7.112;2023-08-01T01:13:35;17.20;1.00
314;DHT22;143;51.634;7.112;2023-08-01T01:16:01;17.20;1.00
314;DHT22;143;51.634;7.112;2023-08-01T01:18:27;17.10;1.00
314;DHT22;143;51.634;7.112;2023-08-01T01:20:53;17.10;1.00
314;DHT22;143;51.634;7.112;2023-08-01T01:23:19;17.10;1.00
314;DHT22;143;51.634;7.112;2023-08-01T01:25:46;17.10;1.00
314;DHT22;143;51.634;7.112;2023-08-01T01:28:13;17.00;1.00
314;DHT22;143;51.634;7.112;2023-08-01T01:30:40;17.00;1.00
314;DHT22;143;51.634;7.112;2023-08-01T01:33:07;17.00;1.00
314;DHT22;143;51.634;7.112;2023-08-01T01:35:34;16.90;1.00
314;DHT22;143;51.634;7.112;2023-08-01T01:38:00;16.90;1.00
314;DHT22;143;51.634;7.112;2023-08-01T01:40:33;16.80;1.00
314;DHT22;143;51.634;7.112;2023-08-01T01:43:02;16.80;1.00
314;DHT22;143;51.634;7.112;2023-08-01T01:45:28;16.80;1.00
314;DHT22;143;51.634;7.112;2023-08-01T01:47:54;16.80;1.00
314;DHT22;143;51.634;7.112;2023-08-01T01:50:19;16.80;1.00
314;DHT22;143;51.634;7.112;2023-08-01T01:52:45;16.90;1.00
314;DHT22;143;51.634;7.112;2023-08-01T01:55:11;16.80;1.00
314;DHT22;143;51.634;7.112;2023-08-01T01:57:37;16.90;1.00
314;DHT22;143;51.634;7.112;2023-08-01T02:00:06;16.90;1.00
314;DHT22;143;51.634;7.112;2023-08-01T02:02:36;16.90;1.00
314;DHT22;143;51.634;7.112;2023-08-01T02:05:02;16.90;1.00
314;DHT22;143;51.634;7.112;2023-08-01T02:07:29;16.90;1.00
314;DHT22;143;51.634;7.112;2023-08-01T02:09:55;16.90;1.00
314;DHT22;143;51.634;7.112;2023-08-01T02:12:21;16.90;1.00
314;DHT22;143;51.634;7.112;2023-08-01T02:14:47;17.00;1.00
314;DHT22;143;51.634;7.112;2023-08-01T02:17:12;16.90;1.00
314;DHT22;143;51.634;7.112;2023-08-01T02:19:38;16.90;1.00
314;DHT22;143;51.634;7.112;2023-08-01T02:22:04;17.00;1.00
314;DHT22;143;51.634;7.112;2023-08-01T02:24:30;16.90;1.00
314;DHT22;143;51.634;7.112;2023-08-01T02:26:56;17.00;1.00
314;DHT22;143;51.634;7.112;2023-08-01T02:29:21;16.90;1.00
314;DHT22;143;51.634;7.112;2023-08-01T02:31:47;16.90;1.00
314;DHT22;143;51.634;7.112;2023-08-01T02:34:13;16.90;1.00
314;DHT22;143;51.634;7.112;2023-08-01T02:36:38;16.90;1.00
314;DHT22;143;51.634;7.112;2023-08-01T02:39:06;16.90;1.00
314;DHT22;143;51.634;7.112;2023-08-01T02:41:32;16.90;1.00
314;DHT22;143;51.634;7.112;2023-08-01T02:43:58;16.80;1.00
314;DHT22;143;51.634;7.112;2023-08-01T02:46:23;16.80;1.00
314;DHT22;143;51.634;7.112;2023-08-01T02:48:49;16.80;1.00
314;DHT22;143;51.634;7.112;2023-08-01T02:51:15;16.80;1.00
314;DHT22;143;51.634;7.112;2023-08-01T02:53:40;16.80;1.00
314;DHT22;143;51.634;7.112;2023-08-01T02:56:07;16.80;1.00
314;DHT22;143;51.634;7.112;2023-08-01T02:58:35;16.80;1.00
314;DHT22;143;51.634;7.112;2023-08-01T03:01:01;16.80;1.00
314;DHT22;143;51.634;7.112;2023-08-01T03:03:27;16.80;1.00
314;DHT22;143;51.634;7.112;2023-08-01T03:05:53;16.80;1.00
314;DHT22;143;51.634;7.112;2023-08-01T03:08:18;16.80;1.00
314;DHT22;143;51.634;7.112;2023-08-01T03:10:45;16.80;1.00
314;DHT22;143;51.634;7.112;2023-08-01T03:13:11;16.80;1.00
314;DHT22;143;51.634;7.112;2023-08-01T03:15:37;16.80;1.00
314;DHT22;143;51.634;7.112;2023-08-01T03:18:03;16.80;1.00
314;DHT22;143;51.634;7.112;2023-08-01T03:20:29;16.80;1.00
314;DHT22;143;51.634;7.112;2023-08-01T03:22:55;16.90;1.00
314;DHT22;143;51.634;7.112;2023-08-01T03:25:21;16.80;1.00
314;DHT22;143;51.634;7.112;2023-08-01T03:27:46;16.90;1.00
314;DHT22;143;51.634;7.112;2023-08-01T03:30:12;16.90;1.00
314;DHT22;143;51.634;7.112;2023-08-01T03:32:37;16.90;1.00
314;DHT22;143;51.634;7.112;2023-08-01T03:35:04;16.90;1.00
314;DHT22;143;51.634;7.112;2023-08-01T03:37:30;16.90;1.00
314;DHT22;143;51.634;7.112;2023-08-01T03:39:56;17.00;1.00
314;DHT22;143;51.634;7.112;2023-08-01T03:42:22;17.00;1.00
314;DHT22;143;51.634;7.112;2023-08-01T03:44:48;16.90;1.00
314;DHT22;143;51.634;7.112;2023-08-01T03:47:14;16.90;1.00
314;DHT22;143;51.634;7.112;2023-08-01T03:49:39;16.90;1.00
314;DHT22;143;51.634;7.112;2023-08-01T03:52:06;16.90;1.00
314;DHT22;143;51.634;7.112;2023-08-01T03:54:31;16.90;1.00
314;DHT22;143;51.634;7.112;2023-08-01T03:56:57;16.90;1.00
314;DHT22;143;51.634;7.112;2023-08-01T03:59:22;16.90;1.00
314;DHT22;143;51.634;7.112;2023-08-01T04:01:48;16.80;1.00
314;DHT22;143;51.634;7.112;2023-08-01T04:04:14;16.80;1.00
314;DHT22;143;51.634;7.112;2023-08-01T04:06:40;16.80;1.00
314;DHT22;143;51.634;7.112;2023-08-01T04:09:05;16.80;1.00
314;DHT22;143;51.634;7.112;2023-08-01T04:11:34;16.90;1.00
314;DHT22;143;51.634;7.112;2023-08-01T04:14:00;16.80;1.00
314;DHT22;143;51.634;7.112;2023-08-01T04:16:25;16.80;1.00
314;DHT22;143;51.634;7.112;2023-08-01T04:18:51;16.80;1.00
314;DHT22;143;51.634;7.112;2023-08-01T04:21:18;16.80;1.00
314;DHT22;143;51.634;7.112;2023-08-01T04:23:44;16.80;1.00
314;DHT22;143;51.634;7.112;2023-08-01T04:26:09;16.70;1.00
314;DHT22;143;51.634;7.112;2023-08-01T04:28:35;16.60;1.00
314;DHT22;143;51.634;7.112;2023-08-01T04:31:01;16.60;1.00
314;DHT22;143;51.634;7.112;2023-08-01T04:33:26;16.60;1.00
314;DHT22;143;51.634;7.112;2023-08-01T04:35:52;16.60;1.00
314;DHT22;143;51.634;7.112;2023-08-01T04:38:18;16.50;1.00
314;DHT22;143;51.634;7.112;2023-08-01T04:40:43;16.50;1.00
314;DHT22;143;51.634;7.112;2023-08-01T04:43:10;16.40;1.00
314;DHT22;143;51.634;7.112;2023-08-01T04:45:36;16.40;1.00
314;DHT22;143;51.634;7.112;2023-08-01T04:48:01;16.40;1.00
314;DHT22;143;51.634;7.112;2023-08-01T04:50:27;16.40;1.00
314;DHT22;143;51.634;7.112;2023-08-01T04:52:53;16.40;1.00
314;DHT22;143;51.634;7.112;2023-08-01T04:55:19;16.40;1.00
314;DHT22;143;51.634;7.112;2023-08-01T04:57:44;16.40;1.00
314;DHT22;143;51.634;7.112;2023-08-01T05:00:11;16.40;1.00
314;DHT22;143;51.634;7.112;2023-08-01T05:02:37;16.40;1.00
314;DHT22;143;51.634;7.112;2023-08-01T05:05:03;16.40;1.00
314;DHT22;143;51.634;7.112;2023-08-01T05:07:29;16.30;1.00
314;DHT22;143;51.634;7.112;2023-08-01T05:09:55;16.30;1.00
314;DHT22;143;51.634;7.112;2023-08-01T05:12:21;16.30;1.00
314;DHT22;143;51.634;7.112;2023-08-01T05:14:47;16.30;1.00
314;DHT22;143;51.634;7.112;2023-08-01T05:17:12;16.30;1.00
314;DHT22;143;51.634;7.112;2023-08-01T05:19:38;16.20;1.00
314;DHT22;143;51.634;7.112;2023-08-01T05:22:04;16.20;1.00
314;DHT22;143;51.634;7.112;2023-08-01T05:24:30;16.20;1.00
314;DHT22;143;51.634;7.112;2023-08-01T05:26:55;16.20;1.00
314;DHT22;143;51.634;7.112;2023-08-01T05:29:21;16.20;1.00
314;DHT22;143;51.634;7.112;2023-08-01T05:31:47;16.10;1.00
314;DHT22;143;51.634;7.112;2023-08-01T05:34:13;16.10;1.00
314;DHT22;143;51.634;7.112;2023-08-01T05:36:38;16.10;1.00
314;DHT22;143;51.634;7.112;2023-08-01T05:39:04;16.10;1.00
314;DHT22;143;51.634;7.112;2023-08-01T05:41:30;16.20;1.00
314;DHT22;143;51.634;7.112;2023-08-01T05:43:57;16.20;1.00
314;DHT22;143;51.634;7.112;2023-08-01T05:46:23;16.20;1.00
314;DHT22;143;51.634;7.112;2023-08-01T05:48:49;16.10;1.00
314;DHT22;143;51.634;7.112;2023-08-01T05:51:15;16.20;1.00
314;DHT22;143;51.634;7.112;2023-08-01T05:53:40;16.20;1.00
314;DHT22;143;51.634;7.112;2023-08-01T05:56:06;16.20;1.00
314;DHT22;143;51.634;7.112;2023-08-01T05:58:32;16.20;1.00
314;DHT22;143;51.634;7.112;2023-08-01T06:00:58;16.20;1.00
314;DHT22;143;51.634;7.112;2023-08-01T06:03:23;16.20;1.00
314;DHT22;143;51.634;7.112;2023-08-01T06:05:49;16.20;1.00
314;DHT22;143;51.634;7.112;2023-08-01T06:08:15;16.20;1.00
314;DHT22;143;51.634;7.112;2023-08-01T06:10:42;16.20;1.00
314;DHT22;143;51.634;7.112;2023-08-01T06:13:09;16.30;1.00
314;DHT22;143;51.634;7.112;2023-08-01T06:15:36;16.20;1.00
314;DHT22;143;51.634;7.112;2023-08-01T06:18:04;16.20;1.00
314;DHT22;143;51.634;7.112;2023-08-01T06:20:31;16.30;1.00
314;DHT22;143;51.634;7.112;2023-08-01T06:22:58;16.30;1.00
314;DHT22;143;51.634;7.112;2023-08-01T06:25:25;16.20;1.00
314;DHT22;143;51.634;7.112;2023-08-01T06:27:53;16.20;1.00
314;DHT22;143;51.634;7.112;2023-08-01T06:30:22;16.20;1.00
314;DHT22;143;51.634;7.112;2023-08-01T06:32:49;16.20;1.00
314;DHT22;143;51.634;7.112;2023-08-01T06:35:16;16.30;1.00
314;DHT22;143;51.634;7.112;2023-08-01T06:37:43;16.30;1.00
314;DHT22;143;51.634;7.112;2023-08-01T06:40:11;16.30;1.00
314;DHT22;143;51.634;7.112;2023-08-01T06:42:49;16.30;1.00
314;DHT22;143;51.634;7.112;2023-08-01T06:45:15;16.30;1.00
314;DHT22;143;51.634;7.112;2023-08-01T06:47:42;16.30;1.00
314;DHT22;143;51.634;7.112;2023-08-01T06:50:09;16.40;1.00
314;DHT22;143;51.634;7.112;2023-08-01T06:52:36;16.40;1.00
314;DHT22;143;51.634;7.112;2023-08-01T06:55:02;16.40;1.00
314;DHT22;143;51.634;7.112;2023-08-01T06:57:29;16.40;1.00
314;DHT22;143;51.634;7.112;2023-08-01T06:59:55;16.40;1.00
314;DHT22;143;51.634;7.112;2023-08-01T07:02:21;16.40;1.00
314;DHT22;143;51.634;7.112;2023-08-01T07:04:47;16.40;1.00
314;DHT22;143;51.634;7.112;2023-08-01T07:07:13;16.50;1.00
314;DHT22;143;51.634;7.112;2023-08-01T07:09:39;16.50;1.00
314;DHT22;143;51.634;7.112;2023-08-01T07:12:05;16.50;1.00
314;DHT22;143;51.634;7.112;2023-08-01T07:14:32;16.50;1.00
314;DHT22;143;51.634;7.112;2023-08-01T07:16:58;16.60;1.00
314;DHT22;143;51.634;7.112;2023-08-01T07:19:24;16.60;1.00
314;DHT22;143;51.634;7.112;2023-08-01T07:21:49;16.60;1.00
314;DHT22;143;51.634;7.112;2023-08-01T07:24:15;16.70;1.00
314;DHT22;143;51.634;7.112;2023-08-01T07:26:41;16.80;1.00
314;DHT22;143;51.634;7.112;2023-08-01T07:29:07;16.80;1.00
314;DHT22;143;51.634;7.112;2023-08-01T07:31:34;16.90;1.00
314;DHT22;143;51.634;7.112;2023-08-01T07:34:00;16.90;1.00
314;DHT22;143;51.634;7.112;2023-08-01T07:36:26;17.00;1.00
314;DHT22;143;51.634;7.112;2023-08-01T07:38:52;17.00;1.00
314;DHT22;143;51.634;7.112;2023-08-01T07:41:18;17.00;1.00
314;DHT22;143;51.634;7.112;2023-08-01T07:43:44;17.10;1.00
314;DHT22;143;51.634;7.112;2023-08-01T07:46:10;17.10;1.00
314;DHT22;143;51.634;7.112;2023-08-01T07:48:37;17.20;1.00
314;DHT22;143;51.634;7.112;2023-08-01T07:51:03;17.20;1.00
314;DHT22;143;51.634;7.112;2023-08-01T07:53:31;17.30;1.00
314;DHT22;143;51.634;7.112;2023-08-01T07:55:57;17.30;1.00
314;DHT22;143;51.634;7.112;2023-08-01T07:58:23;17.20;1.00
314;DHT22;143;51.634;7.112;2023-08-01T08:00:49;17.20;1.00
314;DHT22;143;51.634;7.112;2023-08-01T08:03:14;17.30;1.00
314;DHT22;143;51.634;7.112;2023-08-01T08:05:40;17.30;1.00
314;DHT22;143;51.634;7.112;2023-08-01T08:08:06;17.30;1.00
314;DHT22;143;51.634;7.112;2023-08-01T08:10:32;17.30;1.00
314;DHT22;143;51.634;7.112;2023-08-01T08:12:58;17.40;1.00
314;DHT22;143;51.634;7.112;2023-08-01T08:15:24;17.40;1.00
314;DHT22;143;51.634;7.112;2023-08-01T08:17:51;17.40;1.00
314;DHT22;143;51.634;7.112;2023-08-01T08:20:18;17.40;1.00
314;DHT22;143;51.634;7.112;2023-08-01T08:22:45;17.50;1.00
314;DHT22;143;51.634;7.112;2023-08-01T08:25:10;17.60;1.00
314;DHT22;143;51.634;7.112;2023-08-01T08:27:36;17.60;1.00
314;DHT22;143;51.634;7.112;2023-08-01T08:30:02;17.70;1.00
314;DHT22;143;51.634;7.112;2023-08-01T08:32:27;17.80;1.00
314;DHT22;143;51.634;7.112;2023-08-01T08:34:53;17.90;1.00
314;DHT22;143;51.634;7.112;2023-08-01T08:37:19;18.00;1.00
314;DHT22;143;51.634;7.112;2023-08-01T08:39:44;18.00;1.00
314;DHT22;143;51.634;7.112;2023-08-01T08:42:10;18.00;1.00
314;DHT22;143;51.634;7.112;2023-08-01T08:44:42;18.00;1.00
314;DHT22;143;51.634;7.112;2023-08-01T08:47:10;18.00;1.00
314;DHT22;143;51.634;7.112;2023-08-01T08:49:37;18.10;1.00
314;DHT22;143;51.634;7.112;2023-08-01T08:52:05;18.10;1.00
314;DHT22;143;51.634;7.112;2023-08-01T08:54:31;18.20;1.00
314;DHT22;143;51.634;7.112;2023-08-01T08:56:58;18.20;1.00
314;DHT22;143;51.634;7.112;2023-08-01T08:59:25;18.30;1.00
314;DHT22;143;51.634;7.112;2023-08-01T09:01:52;18.50;1.00
314;DHT22;143;51.634;7.112;2023-08-01T09:04:18;18.60;1.00
314;DHT22;143;51.634;7.112;2023-08-01T09:06:49;18.80;1.00
314;DHT22;143;51.634;7.112;2023-08-01T09:09:17;18.80;1.00
314;DHT22;143;51.634;7.112;2023-08-01T09:11:49;18.80;1.00
314;DHT22;143;51.634;7.112;2023-08-01T09:14:16;18.90;1.00
314;DHT22;143;51.634;7.112;2023-08-01T09:16:42;18.90;1.00
314;DHT22;143;51.634;7.112;2023-08-01T09:19:09;18.90;1.00
314;DHT22;143;51.634;7.112;2023-08-01T09:21:39;18.90;1.00
314;DHT22;143;51.634;7.112;2023-08-01T09:24:09;19.00;1.00
314;DHT22;143;51.634;7.112;2023-08-01T09:26:36;19.00;1.00
314;DHT22;143;51.634;7.112;2023-08-01T09:29:02;19.00;1.00
314;DHT22;143;51.634;7.112;2023-08-01T09:31:34;19.00;1.00
314;DHT22;143;51.634;7.112;2023-08-01T09:34:02;18.90;1.00
314;DHT22;143;51.634;7.112;2023-08-01T09:36:31;18.90;1.00
314;DHT22;143;51.634;7.112;2023-08-01T09:39:01;19.00;1.00
314;DHT22;143;51.634;7.112;2023-08-01T09:41:31;19.00;1.00
314;DHT22;143;51.634;7.112;2023-08-01T09:43:57;19.10;1.00
314;DHT22;143;51.634;7.112;2023-08-01T09:46:24;19.10;1.00
314;DHT22;143;51.634;7.112;2023-08-01T09:48:50;19.10;1.00
314;DHT22;143;51.634;7.112;2023-08-01T09:51:17;19.00;1.00
314;DHT22;143;51.634;7.112;2023-08-01T09:53:51;18.90;1.00
314;DHT22;143;51.634;7.112;2023-08-01T09:56:23;18.90;1.00
314;DHT22;143;51.634;7.112;2023-08-01T09:58:50;18.90;1.00
314;DHT22;143;51.634;7.112;2023-08-01T10:01:19;18.80;1.00
314;DHT22;143;51.634;7.112;2023-08-01T10:03:47;18.80;1.00
314;DHT22;143;51.634;7.112;2023-08-01T10:06:20;18.80;1.00
314;DHT22;143;51.634;7.112;2023-08-01T10:08:48;18.80;1.00
314;DHT22;143;51.634;7.112;2023-08-01T10:11:18;18.90;1.00
314;DHT22;143;51.634;7.112;2023-08-01T10:13:44;19.00;1.00
314;DHT22;143;51.634;7.112;2023-08-01T10:16:11;19.10;1.00
314;DHT22;143;51.634;7.112;2023-08-01T10:18:38;19.10;1.00
314;DHT22;143;51.634;7.112;2023-08-01T10:21:08;19.20;1.00
314;DHT22;143;51.634;7.112;2023-08-01T10:23:35;19.20;1.00
314;DHT22;143;51.634;7.112;2023-08-01T10:26:05;19.30;1.00
314;DHT22;143;51.634;7.112;2023-08-01T10:28:37;19.30;1.00
314;DHT22;143;51.634;7.112;2023-08-01T10:31:10;19.40;1.00
314;DHT22;143;51.634;7.112;2023-08-01T10:33:37;19.40;1.00
314;DHT22;143;51.634;7.112;2023-08-01T10:36:24;19.50;1.00
314;DHT22;143;51.634;7.112;2023-08-01T10:38:57;19.50;1.00
314;DHT22;143;51.634;7.112;2023-08-01T10:41:33;19.50;1.00
314;DHT22;143;51.634;7.112;2023-08-01T10:44:12;19.30;1.00
314;DHT22;143;51.634;7.112;2023-08-01T10:47:01;19.00;1.00
314;DHT22;143;51.634;7.112;2023-08-01T10:49:38;18.90;1.00
314;DHT22;143;51.634;7.112;2023-08-01T10:52:19;18.80;1.00
314;DHT22;143;51.634;7.112;2023-08-01T10:54:45;18.70;1.00
314;DHT22;143;51.634;7.112;2023-08-01T10:57:18;18.50;1.00
314;DHT22;143;51.634;7.112;2023-08-01T10:59:44;18.40;1.00
314;DHT22;143;51.634;7.112;2023-08-01T11:02:10;18.30;1.00
314;DHT22;143;51.634;7.112;2023-08-01T11:04:36;18.10;1.00
314;DHT22;143;51.634;7.112;2023-08-01T11:07:04;18.00;1.00
314;DHT22;143;51.634;7.112;2023-08-01T11:09:30;17.90;1.00
314;DHT22;143;51.634;7.112;2023-08-01T11:11:57;17.90;1.00
314;DHT22;143;51.634;7.112;2023-08-01T11:14:27;18.00;1.00
314;DHT22;143;51.634;7.112;2023-08-01T11:16:57;18.10;1.00
314;DHT22;143;51.634;7.112;2023-08-01T11:19:25;18.10;1.00
314;DHT22;143;51.634;7.112;2023-08-01T11:21:51;18.20;1.00
314;DHT22;143;51.634;7.112;2023-08-01T11:24:18;18.40;1.00
314;DHT22;143;51.634;7.112;2023-08-01T11:26:46;18.50;1.00
314;DHT22;143;51.634;7.112;2023-08-01T11:29:12;18.60;1.00
314;DHT22;143;51.634;7.112;2023-08-01T11:31:39;18.70;1.00
314;DHT22;143;51.634;7.112;2023-08-01T11:34:07;18.70;1.00
314;DHT22;143;51.634;7.112;2023-08-01T11:36:36;18.70;1.00
314;DHT22;143;51.634;7.112;2023-08-01T11:39:02;18.80;1.00
314;DHT22;143;51.634;7.112;2023-08-01T11:41:29;18.80;1.00
314;DHT22;143;51.634;7.112;2023-08-01T11:43:55;18.80;1.00
314;DHT22;143;51.634;7.112;2023-08-01T11:46:22;19.00;1.00
314;DHT22;143;51.634;7.112;2023-08-01T11:48:48;19.00;1.00
314;DHT22;143;51.634;7.112;2023-08-01T11:51:16;19.20;1.00
314;DHT22;143;51.634;7.112;2023-08-01T11:53:42;19.30;1.00
314;DHT22;143;51.634;7.112;2023-08-01T11:56:08;19.50;1.00
314;DHT22;143;51.634;7.112;2023-08-01T11:58:44;19.60;1.00
314;DHT22;143;51.634;7.112;2023-08-01T12:01:13;19.60;1.00
314;DHT22;143;51.634;7.112;2023-08-01T12:03:57;19.60;1.00
314;DHT22;143;51.634;7.112;2023-08-01T12:06:24;19.70;1.00
314;DHT22;143;51.634;7.112;2023-08-01T12:08:51;19.70;1.00
314;DHT22;143;51.634;7.112;2023-08-01T12:13:45;19.90;1.00
314;DHT22;143;51.634;7.112;2023-08-01T12:16:11;20.00;1.00
314;DHT22;143;51.634;7.112;2023-08-01T12:18:39;20.10;1.00
314;DHT22;143;51.634;7.112;2023-08-01T12:21:05;20.20;1.00
314;DHT22;143;51.634;7.112;2023-08-01T12:23:31;20.30;1.00
314;DHT22;143;51.634;7.112;2023-08-01T12:25:57;20.50;1.00
314;DHT22;143;51.634;7.112;2023-08-01T12:28:22;20.60;99.90
314;DHT22;143;51.634;7.112;2023-08-01T12:30:48;20.60;99.90
314;DHT22;143;51.634;7.112;2023-08-01T12:33:16;20.60;99.90
314;DHT22;143;51.634;7.112;2023-08-01T12:35:42;20.60;99.90
314;DHT22;143;51.634;7.112;2023-08-01T12:38:08;20.60;99.90
314;DHT22;143;51.634;7.112;2023-08-01T12:40:34;20.60;99.90
314;DHT22;143;51.634;7.112;2023-08-01T12:43:00;20.40;99.90
314;DHT22;143;51.634;7.112;2023-08-01T12:45:25;20.30;99.90
314;DHT22;143;51.634;7.112;2023-08-01T12:47:52;20.40;99.90
314;DHT22;143;51.634;7.112;2023-08-01T12:50:18;20.40;99.90
314;DHT22;143;51.634;7.112;2023-08-01T12:52:44;20.50;99.90
314;DHT22;143;51.634;7.112;2023-08-01T12:55:09;20.50;99.90
314;DHT22;143;51.634;7.112;2023-08-01T12:57:35;20.50;99.90
314;DHT22;143;51.634;7.112;2023-08-01T13:00:01;20.60;99.90
314;DHT22;143;51.634;7.112;2023-08-01T13:02:27;20.60;99.90
314;DHT22;143;51.634;7.112;2023-08-01T13:04:53;20.60;99.90
314;DHT22;143;51.634;7.112;2023-08-01T13:07:19;20.50;99.90
314;DHT22;143;51.634;7.112;2023-08-01T13:09:44;20.40;99.90
314;DHT22;143;51.634;7.112;2023-08-01T13:12:10;20.40;99.90
314;DHT22;143;51.634;7.112;2023-08-01T13:14:36;20.40;99.90
314;DHT22;143;51.634;7.112;2023-08-01T13:17:02;20.50;99.90
314;DHT22;143;51.634;7.112;2023-08-01T13:19:28;20.60;99.90
314;DHT22;143;51.634;7.112;2023-08-01T13:21:54;20.70;99.90
314;DHT22;143;51.634;7.112;2023-08-01T13:24:19;20.70;99.90
314;DHT22;143;51.634;7.112;2023-08-01T13:26:45;20.70;99.90
314;DHT22;143;51.634;7.112;2023-08-01T13:29:11;20.80;99.90
314;DHT22;143;51.634;7.112;2023-08-01T13:31:36;20.80;99.90
314;DHT22;143;51.634;7.112;2023-08-01T13:34:02;20.90;99.90
314;DHT22;143;51.634;7.112;2023-08-01T13:36:28;20.80;99.90
314;DHT22;143;51.634;7.112;2023-08-01T13:38:54;20.80;99.90
314;DHT22;143;51.634;7.112;2023-08-01T13:41:19;20.90;99.90
314;DHT22;143;51.634;7.112;2023-08-01T13:43:45;21.00;99.90
314;DHT22;143;51.634;7.112;2023-08-01T13:46:16;21.10;99.90
314;DHT22;143;51.634;7.112;2023-08-01T13:48:43;21.20;99.90
314;DHT22;143;51.634;7.112;2023-08-01T13:51:09;21.30;99.90
314;DHT22;143;51.634;7.112;2023-08-01T13:53:35;21.30;97.60
314;DHT22;143;51.634;7.112;2023-08-01T13:56:09;21.40;34.80
314;DHT22;143;51.634;7.112;2023-08-01T13:58:37;21.40;1.00
314;DHT22;143;51.634;7.112;2023-08-01T14:01:03;21.40;31.30
314;DHT22;143;51.634;7.112;2023-08-01T14:03:30;21.50;49.40
314;DHT22;143;51.634;7.112;2023-08-01T14:06:02;21.50;56.30
314;DHT22;143;51.634;7.112;2023-08-01T14:08:28;21.50;3.10
314;DHT22;143;51.634;7.112;2023-08-01T14:10:54;21.40;1.00
314;DHT22;143;51.634;7.112;2023-08-01T14:13:19;21.40;1.00
314;DHT22;143;51.634;7.112;2023-08-01T14:15:45;21.50;5.70
314;DHT22;143;51.634;7.112;2023-08-01T14:18:11;21.50;29.70
314;DHT22;143;51.634;7.112;2023-08-01T14:20:36;21.60;60.40
314;DHT22;143;51.634;7.112;2023-08-01T14:23:02;21.70;96.80
314;DHT22;143;51.634;7.112;2023-08-01T14:25:28;21.80;90.50
314;DHT22;143;51.634;7.112;2023-08-01T14:27:54;21.80;34.70
314;DHT22;143;51.634;7.112;2023-08-01T14:30:19;21.80;1.00
314;DHT22;143;51.634;7.112;2023-08-01T14:32:45;21.80;1.00
314;DHT22;143;51.634;7.112;2023-08-01T14:35:11;21.80;1.00
314;DHT22;143;51.634;7.112;2023-08-01T14:37:37;21.70;1.00
314;DHT22;143;51.634;7.112;2023-08-01T14:40:03;21.70;1.00
314;DHT22;143;51.634;7.112;2023-08-01T14:42:29;21.80;1.00
314;DHT22;143;51.634;7.112;2023-08-01T14:44:55;21.80;1.00
314;DHT22;143;51.634;7.112;2023-08-01T14:47:22;21.70;1.00
314;DHT22;143;51.634;7.112;2023-08-01T14:49:49;21.70;1.00
314;DHT22;143;51.634;7.112;2023-08-01T14:52:14;21.80;1.00
314;DHT22;143;51.634;7.112;2023-08-01T14:54:40;21.90;1.00
314;DHT22;143;51.634;7.112;2023-08-01T14:57:06;21.90;1.00
314;DHT22;143;51.634;7.112;2023-08-01T14:59:32;22.00;1.00
314;DHT22;143;51.634;7.112;2023-08-01T15:01:58;22.00;1.00
314;DHT22;143;51.634;7.112;2023-08-01T15:04:23;22.20;1.00
314;DHT22;143;51.634;7.112;2023-08-01T15:06:49;22.20;1.00
314;DHT22;143;51.634;7.112;2023-08-01T15:09:15;22.30;1.00
314;DHT22;143;51.634;7.112;2023-08-01T15:11:40;22.30;1.00
314;DHT22;143;51.634;7.112;2023-08-01T15:14:06;22.20;1.00
314;DHT22;143;51.634;7.112;2023-08-01T15:16:32;22.20;1.00
314;DHT22;143;51.634;7.112;2023-08-01T15:18:57;22.20;1.00
314;DHT22;143;51.634;7.112;2023-08-01T15:21:23;22.20;1.00
314;DHT22;143;51.634;7.112;2023-08-01T15:23:50;22.20;1.00
314;DHT22;143;51.634;7.112;2023-08-01T15:26:16;22.20;1.00
314;DHT22;143;51.634;7.112;2023-08-01T15:28:42;22.30;1.00
314;DHT22;143;51.634;7.112;2023-08-01T15:31:09;22.30;1.00
314;DHT22;143;51.634;7.112;2023-08-01T15:33:36;22.40;1.00
314;DHT22;143;51.634;7.112;2023-08-01T15:36:04;22.40;1.00
314;DHT22;143;51.634;7.112;2023-08-01T15:38:31;22.40;1.00
314;DHT22;143;51.634;7.112;2023-08-01T15:40:57;22.40;1.00
314;DHT22;143;51.634;7.112;2023-08-01T15:43:26;22.40;1.00
314;DHT22;143;51.634;7.112;2023-08-01T15:45:53;22.40;1.00
314;DHT22;143;51.634;7.112;2023-08-01T15:48:18;22.40;1.00
314;DHT22;143;51.634;7.112;2023-08-01T15:50:44;22.50;1.00
314;DHT22;143;51.634;7.112;2023-08-01T15:53:11;22.40;1.00
314;DHT22;143;51.634;7.112;2023-08-01T15:55:37;22.50;1.00
314;DHT22;143;51.634;7.112;2023-08-01T15:58:02;22.50;1.00
314;DHT22;143;51.634;7.112;2023-08-01T16:00:28;22.50;1.00
314;DHT22;143;51.634;7.112;2023-08-01T16:02:54;22.50;1.00
314;DHT22;143;51.634;7.112;2023-08-01T16:05:19;22.60;1.00
314;DHT22;143;51.634;7.112;2023-08-01T16:07:45;22.50;1.00
314;DHT22;143;51.634;7.112;2023-08-01T16:10:11;22.50;1.00
314;DHT22;143;51.634;7.112;2023-08-01T16:12:36;22.40;1.00
314;DHT22;143;51.634;7.112;2023-08-01T16:15:02;22.40;1.00
314;DHT22;143;51.634;7.112;2023-08-01T16:17:28;22.40;1.00
314;DHT22;143;51.634;7.112;2023-08-01T16:19:53;22.40;1.00
314;DHT22;143;51.634;7.112;2023-08-01T16:22:21;22.40;1.00
314;DHT22;143;51.634;7.112;2023-08-01T16:24:46;22.30;1.00
314;DHT22;143;51.634;7.112;2023-08-01T16:27:12;22.30;1.00
314;DHT22;143;51.634;7.112;2023-08-01T16:29:38;22.40;1.00
314;DHT22;143;51.634;7.112;2023-08-01T16:32:04;22.30;1.00
314;DHT22;143;51.634;7.112;2023-08-01T16:34:32;22.30;1.00
314;DHT22;143;51.634;7.112;2023-08-01T16:36:57;22.30;1.00
314;DHT22;143;51.634;7.112;2023-08-01T16:39:23;22.30;1.00
314;DHT22;143;51.634;7.112;2023-08-01T16:41:49;22.20;1.00
314;DHT22;143;51.634;7.112;2023-08-01T16:44:15;22.20;1.00
314;DHT22;143;51.634;7.112;2023-08-01T16:46:41;22.10;1.00